Time;durP1;ratioP1;P1;durP2;ratioP2;P2;SDS_P1;SDS_P2;PMS_P1;PMS_P2;Temp;Humidity;BMP_temperature;BMP_pressure;BME280_temperature;BME280_humidity;BME280_pressure;Samples;Min_cycle;Max_cycle;Signal;HPM_P1;HPM_P2
2024/01/21 00:00:45;;;;;;;15.18;11.63;;;7.30;1.00;;;;;;5067878;28;20407;-63
2024/01/21 00:03:11;;;;;;;15.15;13.35;;;7.30;1.00;;;;;;5066815;28;20082;-62
2024/01/21 00:05:36;;;;;;;15.63;10.95;;;7.30;1.00;;;;;;5070421;28;20198;-64
2024/01/21 00:08:02;;;;;;;15.82;11.88;;;7.30;1.00;;;;;;5049049;28;20051;-64
2024/01/21 00:10:27;;;;;;;13.38;11.98;;;7.30;1.00;;;;;;5035460;28;20075;-62
2024/01/21 00:12:53;;;;;;;15.50;10.65;;;7.30;1.00;;;;;;5067393;28;20494;-63
2024/01/21 00:15:18;;;;;;;10.88;8.63;;;7.30;1.00;;;;;;5065919;28;20049;-63
2024/01/21 00:17:44;;;;;;;12.57;9.82;;;7.30;1.00;;;;;;5067454;28;20040;-63
2024/01/21 00:20:10;;;;;;;15.45;10.38;;;7.40;1.00;;;;;;5067286;28;20616;-62
2024/01/21 00:22:35;;;;;;;12.65;9.52;;;7.50;1.00;;;;;;5067133;28;20486;-63
2024/01/21 00:25:02;;;;;;;11.15;8.50;;;7.50;1.00;;;;;;5069955;28;20067;-64
2024/01/21 00:27:27;;;;;;;13.02;10.63;;;7.50;1.00;;;;;;5066434;28;20044;-64
2024/01/21 00:29:53;;;;;;;12.13;10.10;;;7.50;1.00;;;;;;5035958;28;20041;-64
2024/01/21 00:32:18;;;;;;;15.75;11.10;;;7.60;1.00;;;;;;5066733;28;20366;-63
2024/01/21 00:34:44;;;;;;;11.57;8.55;;;7.60;1.00;;;;;;5070570;28;20041;-64
2024/01/21 00:37:09;;;;;;;13.40;8.77;;;7.50;1.00;;;;;;5066794;28;20061;-63
2024/01/21 00:39:36;;;;;;;14.10;8.85;;;7.40;1.00;;;;;;5069229;28;20040;-64
2024/01/21 00:42:01;;;;;;;13.30;9.82;;;7.40;1.00;;;;;;5066554;28;20048;-63
2024/01/21 00:44:27;;;;;;;12.60;9.98;;;7.40;1.00;;;;;;5067319;28;20090;-62
2024/01/21 00:46:52;;;;;;;11.93;8.90;;;7.40;1.00;;;;;;5067303;28;20067;-64
2024/01/21 00:49:18;;;;;;;11.75;8.15;;;7.50;1.00;;;;;;5047278;28;20105;-63
2024/01/21 00:51:43;;;;;;;14.55;10.48;;;7.50;1.00;;;;;;5064522;28;20052;-62
2024/01/21 00:54:09;;;;;;;11.52;8.48;;;7.50;1.00;;;;;;5066770;28;20059;-63
2024/01/21 00:56:34;;;;;;;10.15;7.75;;;7.40;1.00;;;;;;5066313;28;20456;-64
2024/01/21 00:59:00;;;;;;;10.70;8.13;;;7.50;1.00;;;;;;5066506;28;20051;-63
2024/01/21 01:01:26;;;;;;;9.98;7.15;;;7.40;1.00;;;;;;5066437;28;20048;-64
2024/01/21 01:03:52;;;;;;;11.50;8.38;;;7.60;1.00;;;;;;5066680;28;20041;-64
2024/01/21 01:06:17;;;;;;;10.70;7.07;;;7.60;1.00;;;;;;5066780;28;20078;-63
2024/01/21 01:08:43;;;;;;;12.30;9.10;;;7.50;1.00;;;;;;5048886;28;20044;-63
2024/01/21 01:11:08;;;;;;;11.32;7.57;;;7.50;1.00;;;;;;5048590;28;20076;-66
2024/01/21 01:13:34;;;;;;;9.48;7.40;;;7.40;1.00;;;;;;5066817;28;20410;-66
2024/01/21 01:16:00;;;;;;;13.10;8.50;;;7.40;1.00;;;;;;5066254;28;20554;-66
2024/01/21 01:18:25;;;;;;;11.75;7.13;;;7.40;1.00;;;;;;5066703;28;20473;-66
2024/01/21 01:20:51;;;;;;;8.45;6.68;;;7.40;1.00;;;;;;5067040;28;20076;-66
2024/01/21 01:23:16;;;;;;;9.35;7.43;;;7.40;1.00;;;;;;5066983;28;20102;-66
2024/01/21 01:25:42;;;;;;;8.25;6.35;;;7.50;1.00;;;;;;5064881;28;20048;-66
2024/01/21 01:28:08;;;;;;;11.48;7.60;;;7.40;1.00;;;;;;5031063;28;20512;-66
2024/01/21 01:30:33;;;;;;;10.70;6.75;;;7.40;1.00;;;;;;5060990;28;20045;-66
2024/01/21 01:32:59;;;;;;;11.35;5.95;;;7.40;1.00;;;;;;5055641;28;20048;-66
2024/01/21 01:35:26;;;;;;;10.20;7.97;;;7.40;1.00;;;;;;5066526;28;20414;-66
2024/01/21 01:37:51;;;;;;;12.52;7.93;;;7.40;1.00;;;;;;5064667;28;20088;-66
2024/01/21 01:40:20;;;;;;;9.85;7.50;;;7.30;1.00;;;;;;5066420;28;20489;-66
2024/01/21 01:42:54;;;;;;;9.55;7.03;;;7.30;1.00;;;;;;5065681;28;20036;-66
2024/01/21 01:45:20;;;;;;;9.55;7.07;;;7.30;1.00;;;;;;5065743;28;20582;-66
2024/01/21 01:47:45;;;;;;;11.00;6.53;;;7.30;1.00;;;;;;5066312;28;20120;-66
2024/01/21 01:50:11;;;;;;;9.15;6.32;;;7.30;1.00;;;;;;5064663;28;20091;-66
2024/01/21 01:52:36;;;;;;;10.75;7.25;;;7.30;1.00;;;;;;5046666;28;20440;-66
2024/01/21 01:55:02;;;;;;;10.18;6.28;;;7.20;1.00;;;;;;5046351;28;20044;-66
2024/01/21 01:57:28;;;;;;;10.40;6.72;;;7.20;1.00;;;;;;5049776;28;20032;-66
2024/01/21 01:59:53;;;;;;;12.32;6.30;;;7.10;1.00;;;;;;5065206;28;20511;-65
2024/01/21 02:02:20;;;;;;;10.35;6.45;;;7.20;1.00;;;;;;5064795;28;20056;-66
2024/01/21 02:04:45;;;;;;;12.07;6.05;;;7.20;1.00;;;;;;5065131;28;20051;-65
2024/01/21 02:07:11;;;;;;;8.77;6.65;;;7.20;1.00;;;;;;5065778;28;20048;-66
2024/01/21 02:09:36;;;;;;;9.88;6.82;;;7.20;1.00;;;;;;5065656;28;20083;-66
2024/01/21 02:12:02;;;;;;;18.02;5.95;;;7.30;1.00;;;;;;5065631;28;20553;-66
2024/01/21 02:14:28;;;;;;;7.93;6.43;;;7.30;1.00;;;;;;5064661;28;20040;-66
2024/01/21 02:16:53;;;;;;;10.90;6.43;;;7.30;1.00;;;;;;5064357;28;20032;-66
2024/01/21 02:19:27;;;;;;;8.50;5.53;;;7.30;1.00;;;;;;5065472;28;20046;-62
2024/01/21 02:21:53;;;;;;;8.40;6.00;;;7.50;1.00;;;;;;5065434;28;20186;-66
2024/01/21 02:24:19;;;;;;;8.10;5.72;;;7.50;1.00;;;;;;5047335;28;20107;-66
2024/01/21 02:26:44;;;;;;;7.18;5.65;;;7.40;1.00;;;;;;5065719;28;20154;-66
2024/01/21 02:29:10;;;;;;;7.50;5.40;;;7.40;1.00;;;;;;5056582;28;20041;-66
2024/01/21 02:31:35;;;;;;;7.95;5.43;;;7.30;1.00;;;;;;5045900;28;20045;-66
2024/01/21 02:34:01;;;;;;;12.63;5.93;;;7.40;1.00;;;;;;5051551;28;20045;-65
2024/01/21 02:36:26;;;;;;;8.63;5.38;;;7.40;1.00;;;;;;5064274;28;20076;-65
2024/01/21 02:38:52;;;;;;;9.10;5.03;;;7.40;1.00;;;;;;5064543;28;20044;-66
2024/01/21 02:41:18;;;;;;;7.78;5.78;;;7.40;1.00;;;;;;5055781;28;20045;-66
2024/01/21 02:43:43;;;;;;;8.68;5.38;;;7.40;1.00;;;;;;5027835;28;20049;-66
2024/01/21 02:46:09;;;;;;;6.40;4.82;;;7.50;1.00;;;;;;5065019;28;20087;-66
2024/01/21 02:48:34;;;;;;;10.48;5.38;;;7.40;1.00;;;;;;5064577;28;20036;-66
2024/01/21 02:51:00;;;;;;;6.20;4.57;;;7.40;1.00;;;;;;5054029;28;20136;-66
2024/01/21 02:53:25;;;;;;;8.32;5.32;;;7.40;1.00;;;;;;5045640;28;20061;-66
2024/01/21 02:55:51;;;;;;;6.47;4.90;;;7.40;1.00;;;;;;5010825;28;20053;-66
2024/01/21 02:58:17;;;;;;;9.73;4.47;;;7.40;1.00;;;;;;5045311;28;20036;-66
2024/01/21 03:00:42;;;;;;;6.43;4.57;;;7.50;1.00;;;;;;5048595;28;20041;-66
2024/01/21 03:03:10;;;;;;;7.82;5.18;;;7.50;1.00;;;;;;5065199;28;20044;-66
2024/01/21 03:05:36;;;;;;;6.70;4.28;;;7.40;1.00;;;;;;5064250;28;20098;-66
2024/01/21 03:08:01;;;;;;;4.72;3.88;;;7.50;1.00;;;;;;5065357;28;20490;-66
2024/01/21 03:10:27;;;;;;;12.93;6.90;;;7.70;1.00;;;;;;5064339;28;20045;-66
2024/01/21 03:12:53;;;;;;;6.25;4.18;;;7.50;1.00;;;;;;5060209;28;20045;-66
2024/01/21 03:15:18;;;;;;;7.80;5.15;;;7.50;1.00;;;;;;5058525;28;20041;-65
2024/01/21 03:17:44;;;;;;;6.35;4.35;;;7.50;1.00;;;;;;5064629;28;20032;-66
2024/01/21 03:20:10;;;;;;;6.65;4.97;;;7.50;1.00;;;;;;5064062;28;20048;-66
2024/01/21 03:22:36;;;;;;;7.60;4.85;;;7.50;1.00;;;;;;5041883;28;20067;-66
2024/01/21 03:25:01;;;;;;;5.43;3.97;;;7.50;1.00;;;;;;5064177;28;20053;-66
2024/01/21 03:27:27;;;;;;;5.63;4.07;;;7.60;1.00;;;;;;5064401;28;20120;-66
2024/01/21 03:29:52;;;;;;;5.45;3.80;;;7.60;1.00;;;;;;5064122;28;20427;-63
2024/01/21 03:32:18;;;;;;;7.60;4.07;;;7.60;1.00;;;;;;5063941;28;20041;-62
2024/01/21 03:34:44;;;;;;;6.47;4.45;;;7.60;1.00;;;;;;5046185;28;20080;-63
2024/01/21 03:37:10;;;;;;;6.03;4.18;;;7.60;1.00;;;;;;5062629;28;20374;-63
2024/01/21 03:39:35;;;;;;;4.32;3.30;;;7.60;1.00;;;;;;5064725;28;20565;-64
2024/01/21 03:42:01;;;;;;;6.20;4.25;;;7.70;1.00;;;;;;5046724;28;20078;-64
2024/01/21 03:44:27;;;;;;;6.40;3.90;;;7.70;1.00;;;;;;5064369;28;20047;-63
2024/01/21 03:46:52;;;;;;;7.25;3.70;;;7.70;1.00;;;;;;5062349;28;20087;-64
2024/01/21 03:49:18;;;;;;;5.05;3.53;;;7.70;99.90;;;;;;5064610;28;20051;-62
2024/01/21 03:51:43;;;;;;;6.05;3.60;;;7.70;99.90;;;;;;5059660;28;20036;-64
2024/01/21 03:54:09;;;;;;;8.25;3.72;;;7.70;99.90;;;;;;5068374;28;20468;-64
2024/01/21 03:56:34;;;;;;;6.15;3.45;;;7.80;99.90;;;;;;5068282;28;20040;-65
2024/01/21 03:59:00;;;;;;;6.05;3.83;;;7.80;99.90;;;;;;5067367;28;20044;-63
2024/01/21 04:01:25;;;;;;;5.32;3.60;;;7.80;99.90;;;;;;5065976;28;20139;-62
2024/01/21 04:03:51;;;;;;;7.65;3.25;;;7.70;99.90;;;;;;5049970;28;20045;-62
2024/01/21 04:06:17;;;;;;;5.57;3.33;;;7.70;99.90;;;;;;5067791;28;20220;-63
2024/01/21 04:08:43;;;;;;;4.63;3.13;;;7.80;99.90;;;;;;5067688;28;20036;-62
2024/01/21 04:11:08;;;;;;;6.30;4.00;;;7.70;99.90;;;;;;5050275;28;20052;-63
2024/01/21 04:13:34;;;;;;;6.90;3.47;;;7.80;99.90;;;;;;5068101;28;20036;-63
2024/01/21 04:16:00;;;;;;;10.85;3.35;;;7.70;99.90;;;;;;5068059;28;20040;-64
2024/01/21 04:18:25;;;;;;;4.07;3.38;;;7.70;99.90;;;;;;5067839;28;20036;-64
2024/01/21 04:20:51;;;;;;;5.82;3.72;;;7.70;99.90;;;;;;5049381;28;20056;-63
2024/01/21 04:23:16;;;;;;;4.35;3.60;;;7.60;99.90;;;;;;5067819;28;20052;-63
2024/01/21 04:25:42;;;;;;;6.28;3.33;;;7.60;99.90;;;;;;5067928;28;20466;-62
2024/01/21 04:28:07;;;;;;;4.85;3.15;;;7.60;99.90;;;;;;5067698;28;20040;-64
2024/01/21 04:30:33;;;;;;;5.45;3.78;;;7.60;99.90;;;;;;5066073;28;20048;-62
2024/01/21 04:32:58;;;;;;;4.93;3.65;;;7.60;99.90;;;;;;5067711;28;20490;-63
2024/01/21 04:35:24;;;;;;;6.10;3.45;;;7.60;99.90;;;;;;5049610;28;20069;-62
2024/01/21 04:37:49;;;;;;;5.95;3.67;;;7.60;99.90;;;;;;5066823;28;20166;-63
2024/01/21 04:40:15;;;;;;;5.53;3.65;;;7.50;99.90;;;;;;5067676;28;20044;-63
2024/01/21 04:42:41;;;;;;;5.97;3.83;;;7.60;99.90;;;;;;5066933;28;20417;-62
2024/01/21 04:45:07;;;;;;;7.10;3.88;;;7.50;99.90;;;;;;5061663;28;20036;-65
2024/01/21 04:47:33;;;;;;;6.03;3.85;;;7.50;99.90;;;;;;5029728;28;20045;-63
2024/01/21 04:49:59;;;;;;;6.90;4.22;;;7.60;99.90;;;;;;5053502;28;20036;-63
2024/01/21 04:52:24;;;;;;;6.45;4.45;;;7.50;99.90;;;;;;5066910;28;20098;-64
2024/01/21 04:54:50;;;;;;;6.60;3.92;;;7.50;99.90;;;;;;5066654;28;20036;-63
2024/01/21 04:57:15;;;;;;;6.97;3.72;;;7.50;99.90;;;;;;5049093;28;20085;-63
2024/01/21 04:59:41;;;;;;;6.03;4.28;;;7.60;99.90;;;;;;5067031;28;20137;-62
2024/01/21 05:02:06;;;;;;;6.78;3.80;;;7.70;99.90;;;;;;5067273;28;20047;-63
2024/01/21 05:04:32;;;;;;;4.47;3.88;;;7.60;99.90;;;;;;5049189;28;20040;-62
2024/01/21 05:06:57;;;;;;;7.50;4.28;;;7.60;99.90;;;;;;5067330;28;20063;-63
2024/01/21 05:09:23;;;;;;;6.20;3.80;;;7.60;99.90;;;;;;5067755;28;20090;-64
2024/01/21 05:11:48;;;;;;;6.85;4.15;;;7.60;99.90;;;;;;5065782;28;20063;-62
2024/01/21 05:14:14;;;;;;;5.75;3.67;;;7.60;99.90;;;;;;5066914;28;20036;-65
2024/01/21 05:16:40;;;;;;;6.60;4.13;;;7.60;99.90;;;;;;5066137;28;20044;-65
2024/01/21 05:19:05;;;;;;;10.85;3.88;;;7.60;99.90;;;;;;5066652;28;20037;-63
2024/01/21 05:21:31;;;;;;;5.18;3.72;;;7.60;99.90;;;;;;5066681;28;20044;-63
2024/01/21 05:23:57;;;;;;;11.40;4.72;;;7.60;99.90;;;;;;5066903;28;20693;-63
2024/01/21 05:26:23;;;;;;;5.13;3.55;;;7.60;99.90;;;;;;5066939;28;20119;-62
2024/01/21 05:28:48;;;;;;;7.47;4.40;;;7.60;99.90;;;;;;5065968;28;20526;-64
2024/01/21 05:31:14;;;;;;;9.25;4.20;;;7.60;99.90;;;;;;5048562;28;20044;-63
2024/01/21 05:33:40;;;;;;;5.88;3.88;;;7.60;99.90;;;;;;5066251;28;20472;-65
2024/01/21 05:36:06;;;;;;;6.07;3.63;;;7.60;99.90;;;;;;5065767;28;20462;-64
2024/01/21 05:38:32;;;;;;;11.13;5.18;;;7.60;99.90;;;;;;5065943;28;20588;-64
2024/01/21 05:40:57;;;;;;;4.75;3.15;;;7.60;99.90;;;;;;5065779;28;20044;-62
2024/01/21 05:43:23;;;;;;;6.15;3.88;;;7.70;99.90;;;;;;5066162;28;20043;-63
2024/01/21 05:45:49;;;;;;;6.25;3.97;;;7.70;99.90;;;;;;5066177;28;20051;-63
2024/01/21 05:48:14;;;;;;;5.32;4.07;;;7.60;99.90;;;;;;5066415;28;20051;-64
2024/01/21 05:50:40;;;;;;;6.35;4.25;;;7.70;99.90;;;;;;5065905;28;20044;-63
2024/01/21 05:53:06;;;;;;;6.38;4.13;;;7.60;99.90;;;;;;5047999;28;20044;-66
2024/01/21 05:55:32;;;;;;;4.93;3.88;;;7.70;99.90;;;;;;5047759;28;20051;-67
2024/01/21 05:57:58;;;;;;;6.85;4.88;;;7.70;99.90;;;;;;5066116;28;20512;-66
2024/01/21 06:00:24;;;;;;;6.05;3.47;;;7.60;99.90;;;;;;5048019;28;20048;-66
2024/01/21 06:02:51;;;;;;;4.72;3.80;;;7.60;99.90;;;;;;5066056;28;20047;-66
2024/01/21 06:05:16;;;;;;;6.28;4.38;;;7.60;99.90;;;;;;5048874;28;20033;-66
2024/01/21 06:07:42;;;;;;;6.07;3.50;;;7.80;99.90;;;;;;5045662;28;20037;-66
2024/01/21 06:10:08;;;;;;;6.40;4.43;;;7.70;99.90;;;;;;5057647;28;20081;-66
2024/01/21 06:12:34;;;;;;;9.02;4.28;;;7.70;99.90;;;;;;5064414;28;20120;-66
2024/01/21 06:14:59;;;;;;;7.97;4.43;;;7.70;99.90;;;;;;5065770;28;20462;-66
2024/01/21 06:17:25;;;;;;;5.80;3.85;;;7.70;99.90;;;;;;5065678;28;20036;-66
2024/01/21 06:19:50;;;;;;;7.28;4.75;;;7.70;99.90;;;;;;5065121;28;20040;-66
2024/01/21 06:22:16;;;;;;;8.40;4.72;;;7.80;99.90;;;;;;5064844;28;20372;-66
2024/01/21 06:24:42;;;;;;;6.22;4.35;;;7.80;99.90;;;;;;5042667;28;20121;-66
2024/01/21 06:27:07;;;;;;;6.65;4.53;;;7.80;99.90;;;;;;5065140;28;20040;-66
2024/01/21 06:29:33;;;;;;;8.60;5.00;;;7.80;99.90;;;;;;5065976;28;20155;-66
2024/01/21 06:31:58;;;;;;;5.60;4.03;;;7.80;99.90;;;;;;5066122;28;20060;-66
2024/01/21 06:34:24;;;;;;;7.97;4.43;;;7.80;99.90;;;;;;5060014;28;20033;-66
2024/01/21 06:36:49;;;;;;;8.40;5.32;;;7.80;99.90;;;;;;5031177;28;20049;-66
2024/01/21 06:39:15;;;;;;;9.80;5.75;;;7.70;99.90;;;;;;5065459;28;20055;-67
2024/01/21 06:41:40;;;;;;;7.35;4.05;;;7.70;99.90;;;;;;5065477;28;20539;-66
2024/01/21 06:44:06;;;;;;;6.55;4.47;;;7.70;1.00;;;;;;5063702;28;20053;-67
2024/01/21 06:46:32;;;;;;;10.45;5.10;;;7.70;1.00;;;;;;5041583;28;20501;-66
2024/01/21 06:48:57;;;;;;;7.68;5.53;;;7.70;1.00;;;;;;5064929;28;20067;-66
2024/01/21 06:51:34;;;;;;;6.68;5.00;;;7.80;1.00;;;;;;5057074;28;20959;-67
2024/01/21 06:54:00;;;;;;;7.03;4.55;;;7.80;1.00;;;;;;5065069;28;20040;-66
2024/01/21 06:56:26;;;;;;;9.38;6.65;;;7.70;1.00;;;;;;5064852;28;20157;-66
2024/01/21 06:58:52;;;;;;;9.15;6.32;;;7.70;1.00;;;;;;5045883;28;20132;-66
2024/01/21 07:01:18;;;;;;;8.18;5.13;;;7.70;1.00;;;;;;5045154;28;20049;-66
2024/01/21 07:03:45;;;;;;;8.90;5.75;;;7.70;1.00;;;;;;5027094;28;20087;-66
2024/01/21 07:06:11;;;;;;;8.57;5.50;;;7.70;1.00;;;;;;5047480;28;20044;-66
2024/01/21 07:08:37;;;;;;;9.50;6.55;;;7.70;1.00;;;;;;5046819;28;20401;-66
2024/01/21 07:11:07;;;;;;;6.63;5.00;;;7.60;1.00;;;;;;5051171;28;20045;-66
2024/01/21 07:13:33;;;;;;;9.05;5.32;;;7.70;1.00;;;;;;5064542;28;20087;-67
2024/01/21 07:15:58;;;;;;;9.05;6.18;;;7.70;1.00;;;;;;5046817;28;20461;-66
2024/01/21 07:18:25;;;;;;;9.20;6.13;;;7.60;1.00;;;;;;5065016;28;20048;-67
2024/01/21 07:20:50;;;;;;;9.00;6.60;;;7.70;1.00;;;;;;5064938;28;20178;-66
2024/01/21 07:23:16;;;;;;;8.68;6.07;;;7.70;1.00;;;;;;5051070;28;20486;-66
2024/01/21 07:25:42;;;;;;;8.90;6.18;;;7.60;1.00;;;;;;5061161;28;20512;-67
2024/01/21 07:28:07;;;;;;;7.85;6.47;;;7.70;1.00;;;;;;5067479;28;20053;-67
2024/01/21 07:30:33;;;;;;;10.23;6.25;;;7.70;1.00;;;;;;5068398;28;20044;-66
2024/01/21 07:32:58;;;;;;;8.18;6.18;;;7.70;1.00;;;;;;5068737;28;20750;-67
2024/01/21 07:35:24;;;;;;;10.15;6.50;;;7.80;1.00;;;;;;5054623;28;20387;-66
2024/01/21 07:37:49;;;;;;;12.32;8.02;;;7.70;1.00;;;;;;5068278;28;20059;-66
2024/01/21 07:40:15;;;;;;;10.35;7.63;;;7.70;1.00;;;;;;5067667;28;20410;-66
2024/01/21 07:42:40;;;;;;;10.18;9.07;;;8.30;1.00;;;;;;5068221;28;20091;-66
2024/01/21 07:45:06;;;;;;;10.93;8.27;;;7.60;1.00;;;;;;5068244;28;20040;-66
2024/01/21 07:47:32;;;;;;;11.45;9.95;;;7.50;1.00;;;;;;5019519;28;20360;-67
2024/01/21 07:49:58;;;;;;;10.57;9.35;;;7.60;1.00;;;;;;5055927;28;20055;-67
2024/01/21 07:52:23;;;;;;;15.02;13.55;;;7.50;1.00;;;;;;5068169;28;20037;-66
2024/01/21 07:54:49;;;;;;;13.45;11.95;;;7.50;1.00;;;;;;5068861;28;20037;-66
2024/01/21 07:57:14;;;;;;;17.02;15.45;;;7.50;1.00;;;;;;5050705;28;20075;-66
2024/01/21 07:59:40;;;;;;;18.27;16.63;;;7.40;1.00;;;;;;5066760;28;20048;-66
2024/01/21 08:02:05;;;;;;;17.60;16.00;;;7.50;1.00;;;;;;5068821;28;20087;-66
2024/01/21 08:04:31;;;;;;;19.77;13.23;;;7.40;1.00;;;;;;5068111;28;20053;-66
2024/01/21 08:06:56;;;;;;;15.30;13.90;;;7.50;1.00;;;;;;5083201;28;20074;-66
2024/01/21 08:09:22;;;;;;;18.65;16.90;;;7.40;1.00;;;;;;5068275;28;20040;-66
2024/01/21 08:11:48;;;;;;;18.70;17.00;;;7.60;1.00;;;;;;5054780;28;20044;-63
2024/01/21 08:14:13;;;;;;;16.90;15.05;;;7.50;1.00;;;;;;5048303;28;20041;-64
2024/01/21 08:16:39;;;;;;;16.23;14.52;;;7.60;1.00;;;;;;5058715;28;20044;-64
2024/01/21 08:19:04;;;;;;;20.10;18.40;;;7.60;1.00;;;;;;5067615;28;20036;-64
2024/01/21 08:21:30;;;;;;;18.58;15.25;;;7.60;1.00;;;;;;5068067;28;20564;-63
2024/01/21 08:23:57;;;;;;;18.27;16.55;;;7.60;1.00;;;;;;5034647;28;20102;-64
2024/01/21 08:26:22;;;;;;;20.50;18.77;;;7.70;1.00;;;;;;5047808;28;20049;-63
2024/01/21 08:28:48;;;;;;;17.77;16.15;;;7.60;1.00;;;;;;5048011;28;20048;-64
2024/01/21 08:31:14;;;;;;;15.93;14.50;;;7.60;1.00;;;;;;5057371;28;20044;-64
2024/01/21 08:33:40;;;;;;;16.13;14.55;;;7.70;1.00;;;;;;5067246;28;20079;-65
2024/01/21 08:36:07;;;;;;;17.60;15.48;;;7.70;1.00;;;;;;5063050;28;20036;-64
2024/01/21 08:38:33;;;;;;;17.20;15.70;;;7.70;1.00;;;;;;5067325;28;20045;-63
2024/01/21 08:40:59;;;;;;;16.83;15.13;;;7.70;1.00;;;;;;5049203;28;20379;-63
2024/01/21 08:43:24;;;;;;;15.63;14.05;;;7.70;1.00;;;;;;5067650;28;20044;-64
2024/01/21 08:45:50;;;;;;;17.15;15.45;;;7.80;1.00;;;;;;5067107;28;20059;-63
2024/01/21 08:48:15;;;;;;;19.35;17.33;;;7.70;1.00;;;;;;5067473;28;20079;-64
2024/01/21 08:50:41;;;;;;;16.17;14.70;;;7.80;1.00;;;;;;5067004;28;20045;-62
2024/01/21 08:53:07;;;;;;;20.60;18.67;;;7.70;1.00;;;;;;5049359;28;20580;-64
2024/01/21 08:55:33;;;;;;;21.23;19.27;;;7.90;1.00;;;;;;5067418;28;20036;-64
2024/01/21 08:57:59;;;;;;;19.17;17.55;;;7.90;1.00;;;;;;5064732;28;20041;-64
2024/01/21 09:00:24;;;;;;;24.33;22.13;;;7.80;1.00;;;;;;5029578;28;20510;-63
2024/01/21 09:02:50;;;;;;;21.65;19.52;;;7.80;1.00;;;;;;5057100;28;20047;-64
2024/01/21 09:05:15;;;;;;;20.73;18.80;;;7.90;1.00;;;;;;5066920;28;20036;-64
2024/01/21 09:07:41;;;;;;;19.27;17.40;;;8.00;1.00;;;;;;5065854;28;20173;-62
2024/01/21 09:10:08;;;;;;;21.10;19.23;;;8.00;1.00;;;;;;5049572;28;20203;-64
2024/01/21 09:12:34;;;;;;;19.83;17.85;;;8.10;1.00;;;;;;5067615;28;20047;-63
2024/01/21 09:15:00;;;;;;;17.77;16.27;;;8.20;1.00;;;;;;5067565;28;20045;-63
2024/01/21 09:17:25;;;;;;;18.17;16.58;;;8.20;1.00;;;;;;5059682;28;20040;-63
2024/01/21 09:19:51;;;;;;;17.67;16.00;;;8.20;1.00;;;;;;5063747;28;20032;-64
2024/01/21 09:22:17;;;;;;;19.23;17.45;;;8.30;1.00;;;;;;5067844;28;20048;-64
2024/01/21 09:24:42;;;;;;;18.95;17.10;;;8.30;1.00;;;;;;5067009;28;20049;-63
2024/01/21 09:27:08;;;;;;;20.02;18.02;;;8.30;1.00;;;;;;5067376;28;20119;-64
2024/01/21 09:29:33;;;;;;;17.50;15.80;;;8.40;1.00;;;;;;5066513;28;20048;-63
2024/01/21 09:31:59;;;;;;;19.83;18.02;;;8.40;1.00;;;;;;5067190;28;20127;-64
2024/01/21 09:34:25;;;;;;;18.23;16.55;;;8.50;1.00;;;;;;5066455;28;20055;-64
2024/01/21 09:36:51;;;;;;;20.48;18.60;;;8.50;1.00;;;;;;5066042;28;20136;-64
2024/01/21 09:39:18;;;;;;;18.05;16.33;;;8.50;1.00;;;;;;5067108;28;20068;-63
2024/01/21 09:41:49;;;;;;;19.65;17.70;;;8.60;1.00;;;;;;5052365;28;20413;-65
2024/01/21 09:44:19;;;;;;;19.60;17.80;;;8.60;1.00;;;;;;5047067;28;20585;-64
2024/01/21 09:46:58;;;;;;;19.75;17.95;;;8.60;1.00;;;;;;5027814;28;20041;-63
2024/01/21 09:49:25;;;;;;;19.27;17.58;;;8.60;1.00;;;;;;5030281;28;20040;-64
2024/01/21 09:51:52;;;;;;;19.45;17.60;;;8.60;1.00;;;;;;5066431;28;20116;-64
2024/01/21 09:54:19;;;;;;;22.15;20.10;;;8.50;1.00;;;;;;5066485;28;20115;-64
2024/01/21 09:56:44;;;;;;;27.05;24.67;;;8.60;1.00;;;;;;5066783;28;20040;-63
2024/01/21 09:59:11;;;;;;;23.58;21.48;;;8.60;1.00;;;;;;5066834;28;20498;-64
2024/01/21 10:01:37;;;;;;;23.23;21.15;;;8.70;1.00;;;;;;5066494;28;20170;-64
2024/01/21 10:04:03;;;;;;;23.42;20.98;;;8.60;1.00;;;;;;5065871;28;20036;-63
2024/01/21 10:06:29;;;;;;;28.85;26.42;;;8.60;1.00;;;;;;5065519;28;20040;-63
2024/01/21 10:09:14;;;;;;;31.42;28.38;;;8.60;1.00;;;;;;5047861;28;20063;-64
2024/01/21 10:11:40;;;;;;;27.45;25.05;;;8.70;1.00;;;;;;5065608;28;20135;-64
2024/01/21 10:14:06;;;;;;;28.95;26.45;;;8.60;1.00;;;;;;5064464;28;20447;-63
2024/01/21 10:16:32;;;;;;;26.88;24.65;;;8.80;1.00;;;;;;5065295;28;20032;-63
2024/01/21 10:18:58;;;;;;;30.30;27.50;;;8.80;1.00;;;;;;5065815;28;20040;-64
2024/01/21 10:21:23;;;;;;;30.42;27.50;;;8.80;1.00;;;;;;5064592;28;20117;-64
2024/01/21 10:23:49;;;;;;;34.03;30.80;;;8.80;1.00;;;;;;5065713;28;20047;-64
2024/01/21 10:26:15;;;;;;;30.58;27.85;;;8.80;1.00;;;;;;5065539;28;20083;-64
2024/01/21 10:28:41;;;;;;;31.92;29.05;;;8.80;1.00;;;;;;5064978;28;20607;-63
2024/01/21 10:31:07;;;;;;;35.35;31.85;;;8.70;1.00;;;;;;5046091;28;20053;-63
2024/01/21 10:33:33;;;;;;;34.00;30.85;;;8.80;1.00;;;;;;5046427;28;20105;-67
2024/01/21 10:36:02;;;;;;;33.65;30.50;;;8.60;1.00;;;;;;5045439;28;20044;-67
2024/01/21 10:38:36;;;;;;;33.47;30.38;;;8.70;1.00;;;;;;5061526;28;20047;-67
2024/01/21 10:41:03;;;;;;;31.42;28.70;;;8.70;1.00;;;;;;5058423;28;20060;-67
2024/01/21 10:43:30;;;;;;;30.98;28.20;;;8.70;1.00;;;;;;5041311;28;20040;-67
2024/01/21 10:45:57;;;;;;;34.08;31.00;;;8.60;1.00;;;;;;5027392;28;20055;-67
2024/01/21 10:48:23;;;;;;;34.05;30.70;;;8.70;1.00;;;;;;5045535;28;20056;-67
2024/01/21 10:50:51;;;;;;;33.05;30.05;;;8.60;1.00;;;;;;5050098;28;20041;-67
2024/01/21 10:53:17;;;;;;;42.08;32.67;;;8.70;1.00;;;;;;5062069;28;20151;-67
2024/01/21 10:55:44;;;;;;;37.08;33.35;;;8.60;1.00;;;;;;5028336;28;20147;-67
2024/01/21 10:58:10;;;;;;;37.38;33.78;;;8.70;1.00;;;;;;5045850;28;20041;-67
2024/01/21 11:00:37;;;;;;;38.10;34.50;;;8.70;1.00;;;;;;5040207;28;20041;-67
2024/01/21 11:03:26;;;;;;;36.38;32.88;;;8.70;1.00;;;;;;5064910;28;20413;-67
2024/01/21 11:05:53;;;;;;;40.20;36.17;;;8.80;1.00;;;;;;5065251;28;20040;-66
2024/01/21 11:08:22;;;;;;;38.10;34.15;;;8.60;1.00;;;;;;5064854;28;20041;-67
2024/01/21 11:10:52;;;;;;;36.60;32.78;;;8.70;1.00;;;;;;5065466;28;20048;-67
2024/01/21 11:13:50;;;;;;;43.50;39.15;;;8.80;1.00;;;;;;5064617;28;20054;-67
2024/01/21 11:16:28;;;;;;;38.30;33.83;;;8.80;1.00;;;;;;5059769;28;20841;-67
2024/01/21 11:19:09;;;;;;;39.80;35.65;;;9.20;1.00;;;;;;5064907;28;20040;-67
2024/01/21 11:21:40;;;;;;;41.25;36.92;;;8.60;1.00;;;;;;5065486;28;20063;-66
2024/01/21 11:24:13;;;;;;;39.92;35.13;;;8.80;1.00;;;;;;5058269;28;20044;-67
2024/01/21 11:26:43;;;;;;;38.60;34.75;;;8.70;1.00;;;;;;5060023;28;20048;-66
2024/01/21 11:29:29;;;;;;;40.65;36.38;;;8.80;3.80;;;;;;5065707;28;20109;-66
2024/01/21 11:32:03;;;;;;;39.58;35.70;;;9.00;2.80;;;;;;5064222;28;20057;-67
2024/01/21 11:34:31;;;;;;;40.60;36.95;;;8.80;3.70;;;;;;5065729;28;20124;-66
2024/01/21 11:36:57;;;;;;;40.42;36.72;;;8.90;8.30;;;;;;5049834;28;20049;-67
2024/01/21 11:39:24;;;;;;;43.72;39.42;;;8.80;10.50;;;;;;5045613;28;20045;-67
2024/01/21 11:41:49;;;;;;;37.45;34.00;;;8.90;12.60;;;;;;5063374;28;20051;-67
2024/01/21 11:44:25;;;;;;;40.42;36.17;;;8.90;13.80;;;;;;5065664;28;20052;-63
2024/01/21 11:46:54;;;;;;;41.45;37.20;;;8.80;18.50;;;;;;5045378;28;20123;-63
2024/01/21 11:49:20;;;;;;;42.75;36.13;;;8.90;21.40;;;;;;5062675;28;20041;-64
2024/01/21 11:51:47;;;;;;;43.65;39.15;;;8.90;25.40;;;;;;5052394;28;20083;-65
2024/01/21 11:54:13;;;;;;;44.30;39.65;;;8.80;35.00;;;;;;5041440;28;20048;-67
2024/01/21 11:56:40;;;;;;;46.70;41.92;;;8.90;42.70;;;;;;5065096;28;20438;-67
2024/01/21 11:59:08;;;;;;;41.25;37.25;;;9.10;48.50;;;;;;5077260;28;20037;-66
2024/01/21 12:01:34;;;;;;;43.17;38.65;;;9.00;54.20;;;;;;5027100;28;20125;-66
2024/01/21 12:04:02;;;;;;;42.95;38.67;;;9.00;58.60;;;;;;5062016;28;20048;-66
2024/01/21 12:06:29;;;;;;;45.92;41.38;;;9.10;62.60;;;;;;5063733;28;20045;-66
2024/01/21 12:08:55;;;;;;;44.75;40.22;;;9.20;69.30;;;;;;5056325;28;20055;-66
2024/01/21 12:11:20;;;;;;;43.90;39.40;;;9.00;79.80;;;;;;5066802;28;20036;-66
2024/01/21 12:13:46;;;;;;;46.85;42.25;;;9.10;88.70;;;;;;5059234;28;20040;-66
2024/01/21 12:16:12;;;;;;;44.17;39.33;;;9.10;92.00;;;;;;5068573;28;20042;-66
2024/01/21 12:18:39;;;;;;;44.20;39.90;;;9.30;94.40;;;;;;5068168;28;20551;-67
2024/01/21 12:21:05;;;;;;;42.42;38.10;;;9.30;98.10;;;;;;5050023;28;20055;-67
2024/01/21 12:23:31;;;;;;;46.65;41.83;;;9.40;99.90;;;;;;5083099;28;20440;-67
2024/01/21 12:25:57;;;;;;;44.58;39.88;;;9.40;99.90;;;;;;5048747;28;20079;-66
2024/01/21 12:28:23;;;;;;;45.35;40.15;;;9.40;99.90;;;;;;5041333;28;20592;-67
2024/01/21 12:30:49;;;;;;;47.88;42.95;;;9.20;99.90;;;;;;5060847;28;20127;-67
2024/01/21 12:33:15;;;;;;;45.97;41.05;;;9.20;99.90;;;;;;5049731;28;20123;-66
2024/01/21 12:35:42;;;;;;;52.30;40.92;;;9.50;99.90;;;;;;5067258;28;20516;-66
2024/01/21 12:38:08;;;;;;;49.42;40.72;;;9.30;99.90;;;;;;5029802;28;20049;-66
2024/01/21 12:40:33;;;;;;;48.60;41.20;;;9.30;99.90;;;;;;5047788;28;20052;-67
2024/01/21 12:42:59;;;;;;;48.42;43.47;;;9.40;99.90;;;;;;5048429;28;20044;-66
2024/01/21 12:45:25;;;;;;;47.17;42.17;;;9.40;99.90;;;;;;5061270;28;20044;-66
2024/01/21 12:47:51;;;;;;;48.00;42.75;;;9.20;99.90;;;;;;5067888;28;20110;-67